sensor_id;sensor_type;location;lat;lon;timestamp;P1;durP1;ratioP1;P2;durP2;ratioP2
71910;SDS011;59783;52.232;5.170;2023-04-29T00:01:32;61.65;;;34.20;;
71910;SDS011;59783;52.232;5.170;2023-04-29T00:03:57;63.93;;;38.83;;
71910;SDS011;59783;52.232;5.170;2023-04-29T00:06:22;68.03;;;34.47;;
71910;SDS011;59783;52.232;5.170;2023-04-29T00:08:47;62.93;;;34.43;;
71910;SDS011;59783;52.232;5.170;2023-04-29T00:11:13;59.63;;;33.72;;
71910;SDS011;59783;52.232;5.170;2023-04-29T00:13:38;62.63;;;37.63;;
71910;SDS011;59783;52.232;5.170;2023-04-29T00:16:05;58.15;;;36.47;;
71910;SDS011;59783;52.232;5.170;2023-04-29T00:18:30;56.30;;;34.22;;
71910;SDS011;59783;52.232;5.170;2023-04-29T00:20:56;51.50;;;33.38;;
71910;SDS011;59783;52.232;5.170;2023-04-29T00:23:21;56.17;;;35.10;;
71910;SDS011;59783;52.232;5.170;2023-04-29T00:25:46;54.83;;;34.20;;
71910;SDS011;59783;52.232;5.170;2023-04-29T00:28:11;57.23;;;35.30;;
71910;SDS011;59783;52.232;5.170;2023-04-29T00:30:37;55.80;;;35.67;;
71910;SDS011;59783;52.232;5.170;2023-04-29T00:33:02;54.38;;;32.85;;
71910;SDS011;59783;52.232;5.170;2023-04-29T00:35:27;59.38;;;34.17;;
71910;SDS011;59783;52.232;5.170;2023-04-29T00:37:52;57.33;;;36.13;;
71910;SDS011;59783;52.232;5.170;2023-04-29T00:40:18;48.00;;;31.95;;
71910;SDS011;59783;52.232;5.170;2023-04-29T00:42:44;50.17;;;34.30;;
71910;SDS011;59783;52.232;5.170;2023-04-29T00:45:09;50.90;;;35.42;;
71910;SDS011;59783;52.232;5.170;2023-04-29T00:47:37;54.28;;;33.50;;
71910;SDS011;59783;52.232;5.170;2023-04-29T00:50:03;57.80;;;34.47;;
71910;SDS011;59783;52.232;5.170;2023-04-29T00:52:29;57.05;;;35.25;;
71910;SDS011;59783;52.232;5.170;2023-04-29T00:54:55;51.63;;;33.53;;
71910;SDS011;59783;52.232;5.170;2023-04-29T00:57:20;49.97;;;33.25;;
71910;SDS011;59783;52.232;5.170;2023-04-29T00:59:46;51.63;;;33.35;;
71910;SDS011;59783;52.232;5.170;2023-04-29T01:02:12;52.30;;;32.42;;
71910;SDS011;59783;52.232;5.170;2023-04-29T01:04:37;51.97;;;32.93;;
71910;SDS011;59783;52.232;5.170;2023-04-29T01:07:04;51.20;;;32.43;;
71910;SDS011;59783;52.232;5.170;2023-04-29T01:09:49;54.28;;;39.53;;
71910;SDS011;59783;52.232;5.170;2023-04-29T01:14:42;51.00;;;33.58;;
71910;SDS011;59783;52.232;5.170;2023-04-29T01:17:17;51.50;;;36.85;;
71910;SDS011;59783;52.232;5.170;2023-04-29T01:19:44;47.33;;;32.17;;
71910;SDS011;59783;52.232;5.170;2023-04-29T01:22:11;54.50;;;34.60;;
71910;SDS011;59783;52.232;5.170;2023-04-29T01:24:38;51.83;;;33.55;;
71910;SDS011;59783;52.232;5.170;2023-04-29T01:29:58;53.58;;;33.00;;
71910;SDS011;59783;52.232;5.170;2023-04-29T01:32:28;49.92;;;33.97;;
71910;SDS011;59783;52.232;5.170;2023-04-29T01:34:59;49.90;;;34.25;;
71910;SDS011;59783;52.232;5.170;2023-04-29T01:37:38;45.47;;;31.02;;
71910;SDS011;59783;52.232;5.170;2023-04-29T01:42:55;47.78;;;33.35;;
71910;SDS011;59783;52.232;5.170;2023-04-29T01:45:24;43.67;;;32.75;;
71910;SDS011;59783;52.232;5.170;2023-04-29T01:47:51;46.70;;;32.30;;
71910;SDS011;59783;52.232;5.170;2023-04-29T01:50:17;53.75;;;37.30;;
71910;SDS011;59783;52.232;5.170;2023-04-29T01:52:42;50.10;;;32.60;;
71910;SDS011;59783;52.232;5.170;2023-04-29T01:55:07;44.80;;;33.63;;
71910;SDS011;59783;52.232;5.170;2023-04-29T01:57:33;41.70;;;32.33;;
71910;SDS011;59783;52.232;5.170;2023-04-29T01:59:58;50.65;;;32.03;;
71910;SDS011;59783;52.232;5.170;2023-04-29T02:02:23;45.40;;;30.05;;
71910;SDS011;59783;52.232;5.170;2023-04-29T02:04:49;45.67;;;32.20;;
71910;SDS011;59783;52.232;5.170;2023-04-29T02:07:14;50.10;;;32.92;;
71910;SDS011;59783;52.232;5.170;2023-04-29T02:09:40;49.72;;;32.22;;
71910;SDS011;59783;52.232;5.170;2023-04-29T02:12:05;40.23;;;31.30;;
71910;SDS011;59783;52.232;5.170;2023-04-29T02:14:30;39.20;;;29.10;;
71910;SDS011;59783;52.232;5.170;2023-04-29T02:16:55;43.33;;;30.30;;
71910;SDS011;59783;52.232;5.170;2023-04-29T02:19:21;44.90;;;30.02;;
71910;SDS011;59783;52.232;5.170;2023-04-29T02:21:46;50.50;;;38.83;;
71910;SDS011;59783;52.232;5.170;2023-04-29T02:24:11;45.50;;;30.77;;
71910;SDS011;59783;52.232;5.170;2023-04-29T02:26:36;45.10;;;30.90;;
71910;SDS011;59783;52.232;5.170;2023-04-29T02:29:02;46.78;;;31.45;;
71910;SDS011;59783;52.232;5.170;2023-04-29T02:31:27;51.30;;;33.08;;
71910;SDS011;59783;52.232;5.170;2023-04-29T02:33:53;50.28;;;34.17;;
71910;SDS011;59783;52.232;5.170;2023-04-29T02:36:18;46.63;;;31.87;;
71910;SDS011;59783;52.232;5.170;2023-04-29T02:38:44;46.22;;;32.22;;
71910;SDS011;59783;52.232;5.170;2023-04-29T02:41:09;49.33;;;33.90;;
71910;SDS011;59783;52.232;5.170;2023-04-29T02:43:34;47.87;;;32.73;;
71910;SDS011;59783;52.232;5.170;2023-04-29T02:45:59;44.58;;;33.70;;
71910;SDS011;59783;52.232;5.170;2023-04-29T02:48:25;49.77;;;34.03;;
71910;SDS011;59783;52.232;5.170;2023-04-29T02:50:50;45.33;;;31.93;;
71910;SDS011;59783;52.232;5.170;2023-04-29T02:53:15;54.80;;;38.80;;
71910;SDS011;59783;52.232;5.170;2023-04-29T02:55:40;48.50;;;32.57;;
71910;SDS011;59783;52.232;5.170;2023-04-29T02:58:05;50.37;;;33.30;;
71910;SDS011;59783;52.232;5.170;2023-04-29T03:00:31;52.63;;;34.47;;
71910;SDS011;59783;52.232;5.170;2023-04-29T03:02:56;46.17;;;32.17;;
71910;SDS011;59783;52.232;5.170;2023-04-29T03:05:21;48.75;;;34.53;;
71910;SDS011;59783;52.232;5.170;2023-04-29T03:07:47;51.42;;;33.50;;
71910;SDS011;59783;52.232;5.170;2023-04-29T03:10:12;51.73;;;31.83;;
71910;SDS011;59783;52.232;5.170;2023-04-29T03:12:37;49.87;;;34.20;;
71910;SDS011;59783;52.232;5.170;2023-04-29T03:15:03;49.90;;;33.72;;
71910;SDS011;59783;52.232;5.170;2023-04-29T03:17:29;45.58;;;33.38;;
71910;SDS011;59783;52.232;5.170;2023-04-29T03:19:54;48.05;;;33.67;;
71910;SDS011;59783;52.232;5.170;2023-04-29T03:22:19;50.27;;;33.27;;
71910;SDS011;59783;52.232;5.170;2023-04-29T03:24:45;45.93;;;31.50;;
71910;SDS011;59783;52.232;5.170;2023-04-29T03:27:10;45.42;;;32.67;;
71910;SDS011;59783;52.232;5.170;2023-04-29T03:29:35;43.67;;;30.83;;
71910;SDS011;59783;52.232;5.170;2023-04-29T03:32:00;49.73;;;33.03;;
71910;SDS011;59783;52.232;5.170;2023-04-29T03:34:26;54.80;;;33.80;;
71910;SDS011;59783;52.232;5.170;2023-04-29T03:36:51;54.17;;;35.67;;
71910;SDS011;59783;52.232;5.170;2023-04-29T03:39:17;46.97;;;34.30;;
71910;SDS011;59783;52.232;5.170;2023-04-29T03:41:42;53.80;;;34.13;;
71910;SDS011;59783;52.232;5.170;2023-04-29T03:44:07;49.55;;;33.55;;
71910;SDS011;59783;52.232;5.170;2023-04-29T03:46:33;47.38;;;37.58;;
71910;SDS011;59783;52.232;5.170;2023-04-29T03:48:58;47.63;;;35.03;;
71910;SDS011;59783;52.232;5.170;2023-04-29T03:51:23;45.93;;;33.33;;
71910;SDS011;59783;52.232;5.170;2023-04-29T03:53:49;54.95;;;37.35;;
71910;SDS011;59783;52.232;5.170;2023-04-29T03:56:15;46.00;;;32.97;;
71910;SDS011;59783;52.232;5.170;2023-04-29T03:58:41;47.17;;;33.27;;
71910;SDS011;59783;52.232;5.170;2023-04-29T04:01:06;44.60;;;32.33;;
71910;SDS011;59783;52.232;5.170;2023-04-29T04:03:31;51.27;;;34.50;;
71910;SDS011;59783;52.232;5.170;2023-04-29T04:05:56;47.13;;;33.93;;
71910;SDS011;59783;52.232;5.170;2023-04-29T04:08:21;47.90;;;32.90;;
71910;SDS011;59783;52.232;5.170;2023-04-29T04:10:47;45.53;;;33.33;;
71910;SDS011;59783;52.232;5.170;2023-04-29T04:13:12;48.60;;;35.03;;
71910;SDS011;59783;52.232;5.170;2023-04-29T04:15:38;49.90;;;33.78;;
71910;SDS011;59783;52.232;5.170;2023-04-29T04:18:03;44.23;;;32.00;;
71910;SDS011;59783;52.232;5.170;2023-04-29T04:20:28;49.27;;;35.13;;
71910;SDS011;59783;52.232;5.170;2023-04-29T04:22:53;47.93;;;34.10;;
71910;SDS011;59783;52.232;5.170;2023-04-29T04:25:19;46.58;;;33.03;;
71910;SDS011;59783;52.232;5.170;2023-04-29T04:27:44;46.67;;;33.20;;
71910;SDS011;59783;52.232;5.170;2023-04-29T04:30:09;49.05;;;31.67;;
71910;SDS011;59783;52.232;5.170;2023-04-29T04:32:35;47.83;;;36.05;;
71910;SDS011;59783;52.232;5.170;2023-04-29T04:35:00;50.53;;;34.10;;
71910;SDS011;59783;52.232;5.170;2023-04-29T04:37:25;44.28;;;33.13;;
71910;SDS011;59783;52.232;5.170;2023-04-29T04:39:51;52.53;;;36.42;;
71910;SDS011;59783;52.232;5.170;2023-04-29T04:42:16;51.63;;;34.35;;
71910;SDS011;59783;52.232;5.170;2023-04-29T04:44:41;50.17;;;33.53;;
71910;SDS011;59783;52.232;5.170;2023-04-29T04:47:06;48.43;;;33.13;;
71910;SDS011;59783;52.232;5.170;2023-04-29T04:49:31;55.90;;;33.67;;
71910;SDS011;59783;52.232;5.170;2023-04-29T04:51:57;49.73;;;34.20;;
71910;SDS011;59783;52.232;5.170;2023-04-29T04:54:22;46.92;;;33.25;;
71910;SDS011;59783;52.232;5.170;2023-04-29T04:56:47;47.70;;;34.30;;
71910;SDS011;59783;52.232;5.170;2023-04-29T04:59:12;51.20;;;37.27;;
71910;SDS011;59783;52.232;5.170;2023-04-29T05:01:38;51.97;;;35.05;;
71910;SDS011;59783;52.232;5.170;2023-04-29T05:04:03;57.10;;;32.27;;
71910;SDS011;59783;52.232;5.170;2023-04-29T05:06:28;49.30;;;33.07;;
71910;SDS011;59783;52.232;5.170;2023-04-29T05:08:53;46.03;;;31.23;;
71910;SDS011;59783;52.232;5.170;2023-04-29T05:11:19;46.63;;;31.67;;
71910;SDS011;59783;52.232;5.170;2023-04-29T05:13:44;47.22;;;33.42;;
71910;SDS011;59783;52.232;5.170;2023-04-29T05:16:09;48.13;;;35.45;;
71910;SDS011;59783;52.232;5.170;2023-04-29T05:18:35;50.00;;;35.73;;
71910;SDS011;59783;52.232;5.170;2023-04-29T05:21:00;50.50;;;34.53;;
71910;SDS011;59783;52.232;5.170;2023-04-29T05:23:25;50.10;;;33.80;;
71910;SDS011;59783;52.232;5.170;2023-04-29T05:25:50;44.78;;;32.75;;
71910;SDS011;59783;52.232;5.170;2023-04-29T05:28:16;47.65;;;35.28;;
71910;SDS011;59783;52.232;5.170;2023-04-29T05:30:41;44.97;;;34.75;;
71910;SDS011;59783;52.232;5.170;2023-04-29T05:33:07;46.00;;;33.90;;
71910;SDS011;59783;52.232;5.170;2023-04-29T05:35:32;48.80;;;31.77;;
71910;SDS011;59783;52.232;5.170;2023-04-29T05:37:57;47.77;;;32.43;;
71910;SDS011;59783;52.232;5.170;2023-04-29T05:40:23;46.10;;;34.00;;
71910;SDS011;59783;52.232;5.170;2023-04-29T05:42:48;47.53;;;35.93;;
71910;SDS011;59783;52.232;5.170;2023-04-29T05:45:13;45.00;;;35.47;;
71910;SDS011;59783;52.232;5.170;2023-04-29T05:47:38;44.50;;;33.43;;
71910;SDS011;59783;52.232;5.170;2023-04-29T05:50:04;42.93;;;32.33;;
71910;SDS011;59783;52.232;5.170;2023-04-29T05:52:29;45.58;;;32.13;;
71910;SDS011;59783;52.232;5.170;2023-04-29T05:54:54;48.30;;;32.53;;
71910;SDS011;59783;52.232;5.170;2023-04-29T05:57:20;41.50;;;31.40;;
71910;SDS011;59783;52.232;5.170;2023-04-29T05:59:45;45.83;;;32.47;;
71910;SDS011;59783;52.232;5.170;2023-04-29T06:02:10;48.03;;;32.08;;
71910;SDS011;59783;52.232;5.170;2023-04-29T06:04:36;44.55;;;30.30;;
71910;SDS011;59783;52.232;5.170;2023-04-29T06:07:01;42.35;;;32.00;;
71910;SDS011;59783;52.232;5.170;2023-04-29T06:09:28;45.83;;;31.20;;
71910;SDS011;59783;52.232;5.170;2023-04-29T06:11:53;43.37;;;28.23;;
71910;SDS011;59783;52.232;5.170;2023-04-29T06:14:18;40.57;;;29.20;;
71910;SDS011;59783;52.232;5.170;2023-04-29T06:16:44;40.00;;;35.57;;
71910;SDS011;59783;52.232;5.170;2023-04-29T06:19:09;48.23;;;37.87;;
71910;SDS011;59783;52.232;5.170;2023-04-29T06:21:34;46.63;;;31.87;;
71910;SDS011;59783;52.232;5.170;2023-04-29T06:23:59;39.37;;;29.33;;
71910;SDS011;59783;52.232;5.170;2023-04-29T06:26:24;42.80;;;29.00;;
71910;SDS011;59783;52.232;5.170;2023-04-29T06:28:50;40.67;;;29.02;;
71910;SDS011;59783;52.232;5.170;2023-04-29T06:31:15;43.63;;;29.80;;
71910;SDS011;59783;52.232;5.170;2023-04-29T06:33:40;41.22;;;30.20;;
71910;SDS011;59783;52.232;5.170;2023-04-29T06:36:06;45.65;;;29.73;;
71910;SDS011;59783;52.232;5.170;2023-04-29T06:38:31;45.47;;;30.45;;
71910;SDS011;59783;52.232;5.170;2023-04-29T06:40:56;44.33;;;31.83;;
71910;SDS011;59783;52.232;5.170;2023-04-29T06:43:24;44.55;;;33.38;;
71910;SDS011;59783;52.232;5.170;2023-04-29T06:45:50;42.83;;;32.45;;
71910;SDS011;59783;52.232;5.170;2023-04-29T06:48:16;43.97;;;31.38;;
71910;SDS011;59783;52.232;5.170;2023-04-29T06:50:47;43.70;;;29.63;;
71910;SDS011;59783;52.232;5.170;2023-04-29T06:53:13;45.28;;;35.20;;
71910;SDS011;59783;52.232;5.170;2023-04-29T06:55:38;42.90;;;30.02;;
71910;SDS011;59783;52.232;5.170;2023-04-29T06:58:03;45.17;;;29.30;;
71910;SDS011;59783;52.232;5.170;2023-04-29T07:00:28;39.40;;;30.45;;
71910;SDS011;59783;52.232;5.170;2023-04-29T07:02:54;42.83;;;30.08;;
71910;SDS011;59783;52.232;5.170;2023-04-29T07:05:19;43.70;;;30.85;;
71910;SDS011;59783;52.232;5.170;2023-04-29T07:07:44;38.50;;;28.07;;
71910;SDS011;59783;52.232;5.170;2023-04-29T07:10:10;47.85;;;36.70;;
71910;SDS011;59783;52.232;5.170;2023-04-29T07:12:35;39.83;;;30.50;;
71910;SDS011;59783;52.232;5.170;2023-04-29T07:15:01;41.45;;;29.20;;
71910;SDS011;59783;52.232;5.170;2023-04-29T07:17:28;42.38;;;28.40;;
71910;SDS011;59783;52.232;5.170;2023-04-29T07:19:53;52.30;;;38.28;;
71910;SDS011;59783;52.232;5.170;2023-04-29T07:22:18;39.27;;;28.30;;
71910;SDS011;59783;52.232;5.170;2023-04-29T07:24:44;39.60;;;28.90;;
71910;SDS011;59783;52.232;5.170;2023-04-29T07:27:09;39.30;;;30.47;;
71910;SDS011;59783;52.232;5.170;2023-04-29T07:29:34;43.77;;;30.50;;
71910;SDS011;59783;52.232;5.170;2023-04-29T07:31:59;42.90;;;31.37;;
71910;SDS011;59783;52.232;5.170;2023-04-29T07:34:24;37.60;;;26.83;;
71910;SDS011;59783;52.232;5.170;2023-04-29T07:36:50;38.93;;;28.37;;
71910;SDS011;59783;52.232;5.170;2023-04-29T07:39:15;41.93;;;29.57;;
71910;SDS011;59783;52.232;5.170;2023-04-29T07:41:40;41.80;;;30.70;;
71910;SDS011;59783;52.232;5.170;2023-04-29T07:44:06;35.10;;;25.33;;
71910;SDS011;59783;52.232;5.170;2023-04-29T07:46:31;37.77;;;29.27;;
71910;SDS011;59783;52.232;5.170;2023-04-29T07:48:56;39.97;;;31.27;;
71910;SDS011;59783;52.232;5.170;2023-04-29T07:51:22;38.50;;;27.00;;
71910;SDS011;59783;52.232;5.170;2023-04-29T07:53:47;37.50;;;26.80;;
71910;SDS011;59783;52.232;5.170;2023-04-29T07:56:12;40.77;;;32.50;;
71910;SDS011;59783;52.232;5.170;2023-04-29T07:58:37;40.80;;;30.17;;
71910;SDS011;59783;52.232;5.170;2023-04-29T08:01:09;36.63;;;28.93;;
71910;SDS011;59783;52.232;5.170;2023-04-29T08:03:35;37.42;;;25.52;;
71910;SDS011;59783;52.232;5.170;2023-04-29T08:06:01;41.22;;;27.17;;
71910;SDS011;59783;52.232;5.170;2023-04-29T08:08:27;37.60;;;26.33;;
71910;SDS011;59783;52.232;5.170;2023-04-29T08:10:52;34.95;;;27.23;;
71910;SDS011;59783;52.232;5.170;2023-04-29T08:13:18;37.72;;;27.35;;
71910;SDS011;59783;52.232;5.170;2023-04-29T08:15:43;38.83;;;26.20;;
71910;SDS011;59783;52.232;5.170;2023-04-29T08:18:08;35.87;;;26.37;;
71910;SDS011;59783;52.232;5.170;2023-04-29T08:20:33;34.40;;;26.73;;
71910;SDS011;59783;52.232;5.170;2023-04-29T08:22:58;32.10;;;25.90;;
71910;SDS011;59783;52.232;5.170;2023-04-29T08:25:24;34.90;;;25.02;;
71910;SDS011;59783;52.232;5.170;2023-04-29T08:27:50;34.28;;;24.73;;
71910;SDS011;59783;52.232;5.170;2023-04-29T08:30:16;31.13;;;24.80;;
71910;SDS011;59783;52.232;5.170;2023-04-29T08:32:41;30.50;;;24.83;;
71910;SDS011;59783;52.232;5.170;2023-04-29T08:35:06;30.95;;;25.85;;
71910;SDS011;59783;52.232;5.170;2023-04-29T08:37:32;31.35;;;26.77;;
71910;SDS011;59783;52.232;5.170;2023-04-29T08:39:57;29.67;;;23.77;;
71910;SDS011;59783;52.232;5.170;2023-04-29T08:42:32;30.35;;;24.08;;
71910;SDS011;59783;52.232;5.170;2023-04-29T08:44:58;28.73;;;23.63;;
71910;SDS011;59783;52.232;5.170;2023-04-29T08:47:24;29.60;;;23.88;;
71910;SDS011;59783;52.232;5.170;2023-04-29T08:49:50;29.50;;;25.33;;
71910;SDS011;59783;52.232;5.170;2023-04-29T08:52:15;28.83;;;23.50;;
71910;SDS011;59783;52.232;5.170;2023-04-29T08:54:40;28.17;;;23.10;;
71910;SDS011;59783;52.232;5.170;2023-04-29T08:57:05;28.27;;;23.48;;
71910;SDS011;59783;52.232;5.170;2023-04-29T08:59:31;29.05;;;24.67;;
71910;SDS011;59783;52.232;5.170;2023-04-29T09:01:56;26.60;;;23.70;;
71910;SDS011;59783;52.232;5.170;2023-04-29T09:04:31;29.75;;;23.55;;
71910;SDS011;59783;52.232;5.170;2023-04-29T09:07:00;29.40;;;23.77;;
71910;SDS011;59783;52.232;5.170;2023-04-29T09:09:26;28.95;;;24.65;;
71910;SDS011;59783;52.232;5.170;2023-04-29T09:11:52;31.20;;;22.98;;
71910;SDS011;59783;52.232;5.170;2023-04-29T09:14:18;29.75;;;24.20;;
71910;SDS011;59783;52.232;5.170;2023-04-29T09:16:46;30.95;;;26.42;;
71910;SDS011;59783;52.232;5.170;2023-04-29T09:19:24;32.78;;;25.75;;
71910;SDS011;59783;52.232;5.170;2023-04-29T09:21:53;26.48;;;23.58;;
71910;SDS011;59783;52.232;5.170;2023-04-29T09:24:23;30.77;;;23.55;;
71910;SDS011;59783;52.232;5.170;2023-04-29T09:26:49;28.75;;;24.30;;
71910;SDS011;59783;52.232;5.170;2023-04-29T09:29:14;28.93;;;24.87;;
71910;SDS011;59783;52.232;5.170;2023-04-29T09:31:40;29.20;;;22.75;;
71910;SDS011;59783;52.232;5.170;2023-04-29T09:34:06;28.95;;;24.92;;
71910;SDS011;59783;52.232;5.170;2023-04-29T09:36:41;28.00;;;25.10;;
71910;SDS011;59783;52.232;5.170;2023-04-29T09:39:10;27.27;;;23.15;;
71910;SDS011;59783;52.232;5.170;2023-04-29T09:41:56;27.00;;;22.70;;
71910;SDS011;59783;52.232;5.170;2023-04-29T09:44:23;28.48;;;25.52;;
71910;SDS011;59783;52.232;5.170;2023-04-29T09:46:59;28.70;;;25.60;;
71910;SDS011;59783;52.232;5.170;2023-04-29T09:49:27;29.42;;;26.23;;
71910;SDS011;59783;52.232;5.170;2023-04-29T09:54:21;29.90;;;23.25;;
71910;SDS011;59783;52.232;5.170;2023-04-29T09:56:48;27.13;;;24.27;;
71910;SDS011;59783;52.232;5.170;2023-04-29T09:59:13;27.92;;;24.95;;
71910;SDS011;59783;52.232;5.170;2023-04-29T10:01:38;26.92;;;24.10;;
71910;SDS011;59783;52.232;5.170;2023-04-29T10:04:04;26.40;;;23.73;;
71910;SDS011;59783;52.232;5.170;2023-04-29T10:06:30;25.77;;;23.00;;
71910;SDS011;59783;52.232;5.170;2023-04-29T10:08:55;26.80;;;23.97;;
71910;SDS011;59783;52.232;5.170;2023-04-29T10:11:21;25.63;;;22.98;;
71910;SDS011;59783;52.232;5.170;2023-04-29T10:13:46;25.02;;;22.42;;
71910;SDS011;59783;52.232;5.170;2023-04-29T10:18:39;27.88;;;25.17;;
71910;SDS011;59783;52.232;5.170;2023-04-29T10:21:05;25.02;;;21.30;;
71910;SDS011;59783;52.232;5.170;2023-04-29T10:23:31;27.50;;;24.58;;
71910;SDS011;59783;52.232;5.170;2023-04-29T10:25:57;24.23;;;21.63;;
71910;SDS011;59783;52.232;5.170;2023-04-29T10:28:23;24.42;;;21.90;;
71910;SDS011;59783;52.232;5.170;2023-04-29T10:30:49;23.75;;;21.23;;
71910;SDS011;59783;52.232;5.170;2023-04-29T10:33:15;24.90;;;22.30;;
71910;SDS011;59783;52.232;5.170;2023-04-29T10:35:42;23.05;;;20.67;;
71910;SDS011;59783;52.232;5.170;2023-04-29T10:38:16;24.02;;;21.55;;
71910;SDS011;59783;52.232;5.170;2023-04-29T10:40:44;25.48;;;22.90;;
71910;SDS011;59783;52.232;5.170;2023-04-29T10:43:10;31.60;;;28.33;;
71910;SDS011;59783;52.232;5.170;2023-04-29T10:45:36;24.20;;;21.60;;
71910;SDS011;59783;52.232;5.170;2023-04-29T10:52:56;24.95;;;22.27;;
71910;SDS011;59783;52.232;5.170;2023-04-29T10:55:22;25.83;;;22.77;;
71910;SDS011;59783;52.232;5.170;2023-04-29T10:57:47;26.95;;;24.05;;
71910;SDS011;59783;52.232;5.170;2023-04-29T11:03:07;26.17;;;23.48;;
71910;SDS011;59783;52.232;5.170;2023-04-29T11:06:02;26.13;;;23.05;;
71910;SDS011;59783;52.232;5.170;2023-04-29T11:08:32;24.60;;;22.08;;
71910;SDS011;59783;52.232;5.170;2023-04-29T11:11:03;25.33;;;22.35;;
71910;SDS011;59783;52.232;5.170;2023-04-29T11:13:29;25.10;;;22.05;;
71910;SDS011;59783;52.232;5.170;2023-04-29T11:16:08;25.02;;;21.33;;
71910;SDS011;59783;52.232;5.170;2023-04-29T11:18:34;24.65;;;21.95;;
71910;SDS011;59783;52.232;5.170;2023-04-29T11:23:37;25.05;;;22.45;;
71910;SDS011;59783;52.232;5.170;2023-04-29T11:26:03;27.02;;;24.20;;
71910;SDS011;59783;52.232;5.170;2023-04-29T11:28:31;24.10;;;21.60;;
71910;SDS011;59783;52.232;5.170;2023-04-29T11:30:57;24.95;;;22.20;;
71910;SDS011;59783;52.232;5.170;2023-04-29T11:33:22;23.98;;;21.02;;
71910;SDS011;59783;52.232;5.170;2023-04-29T11:35:48;25.20;;;21.65;;
71910;SDS011;59783;52.232;5.170;2023-04-29T11:38:13;24.03;;;21.40;;
71910;SDS011;59783;52.232;5.170;2023-04-29T11:40:41;25.33;;;21.87;;
71910;SDS011;59783;52.232;5.170;2023-04-29T11:43:07;23.08;;;19.67;;
71910;SDS011;59783;52.232;5.170;2023-04-29T11:45:34;23.13;;;20.63;;
71910;SDS011;59783;52.232;5.170;2023-04-29T11:47:59;24.08;;;21.55;;
71910;SDS011;59783;52.232;5.170;2023-04-29T11:50:25;23.73;;;21.20;;
71910;SDS011;59783;52.232;5.170;2023-04-29T11:52:50;23.42;;;21.02;;
71910;SDS011;59783;52.232;5.170;2023-04-29T11:55:16;24.77;;;20.77;;
71910;SDS011;59783;52.232;5.170;2023-04-29T11:57:41;24.15;;;21.65;;
71910;SDS011;59783;52.232;5.170;2023-04-29T12:00:10;25.23;;;21.17;;
71910;SDS011;59783;52.232;5.170;2023-04-29T12:02:38;28.85;;;25.92;;
71910;SDS011;59783;52.232;5.170;2023-04-29T12:05:07;22.42;;;20.13;;
71910;SDS011;59783;52.232;5.170;2023-04-29T12:07:38;26.00;;;21.83;;
71910;SDS011;59783;52.232;5.170;2023-04-29T12:10:06;23.13;;;20.63;;
71910;SDS011;59783;52.232;5.170;2023-04-29T12:12:32;26.77;;;23.95;;
71910;SDS011;59783;52.232;5.170;2023-04-29T12:15:00;23.92;;;21.52;;
71910;SDS011;59783;52.232;5.170;2023-04-29T12:17:27;23.90;;;20.85;;
71910;SDS011;59783;52.232;5.170;2023-04-29T12:19:52;22.92;;;20.52;;
71910;SDS011;59783;52.232;5.170;2023-04-29T12:22:18;23.73;;;21.15;;
71910;SDS011;59783;52.232;5.170;2023-04-29T12:24:43;24.92;;;22.15;;
71910;SDS011;59783;52.232;5.170;2023-04-29T12:27:09;24.00;;;21.52;;
71910;SDS011;59783;52.232;5.170;2023-04-29T12:29:35;23.65;;;19.95;;
71910;SDS011;59783;52.232;5.170;2023-04-29T12:32:00;23.90;;;21.40;;
71910;SDS011;59783;52.232;5.170;2023-04-29T12:34:29;22.57;;;20.23;;
71910;SDS011;59783;52.232;5.170;2023-04-29T12:36:55;22.55;;;20.05;;
71910;SDS011;59783;52.232;5.170;2023-04-29T12:39:21;22.98;;;20.67;;
71910;SDS011;59783;52.232;5.170;2023-04-29T12:41:46;27.20;;;24.52;;
71910;SDS011;59783;52.232;5.170;2023-04-29T12:44:11;22.10;;;19.77;;
71910;SDS011;59783;52.232;5.170;2023-04-29T12:46:37;27.75;;;25.33;;
71910;SDS011;59783;52.232;5.170;2023-04-29T12:49:03;23.55;;;20.02;;
71910;SDS011;59783;52.232;5.170;2023-04-29T12:51:29;23.73;;;21.27;;
71910;SDS011;59783;52.232;5.170;2023-04-29T12:53:56;23.63;;;20.63;;
71910;SDS011;59783;52.232;5.170;2023-04-29T12:56:21;22.77;;;20.48;;
71910;SDS011;59783;52.232;5.170;2023-04-29T12:58:46;21.63;;;19.43;;
71910;SDS011;59783;52.232;5.170;2023-04-29T13:01:11;22.20;;;19.77;;
71910;SDS011;59783;52.232;5.170;2023-04-29T13:03:37;22.17;;;19.88;;
71910;SDS011;59783;52.232;5.170;2023-04-29T13:06:04;23.13;;;20.77;;
71910;SDS011;59783;52.232;5.170;2023-04-29T13:08:29;22.98;;;20.60;;
71910;SDS011;59783;52.232;5.170;2023-04-29T13:10:54;22.70;;;20.20;;
71910;SDS011;59783;52.232;5.170;2023-04-29T13:13:20;23.73;;;20.30;;
71910;SDS011;59783;52.232;5.170;2023-04-29T13:15:45;24.27;;;21.60;;
71910;SDS011;59783;52.232;5.170;2023-04-29T13:18:10;22.73;;;19.37;;
71910;SDS011;59783;52.232;5.170;2023-04-29T13:20:35;21.20;;;19.00;;
71910;SDS011;59783;52.232;5.170;2023-04-29T13:23:01;22.25;;;19.58;;
71910;SDS011;59783;52.232;5.170;2023-04-29T13:25:26;22.30;;;19.90;;
71910;SDS011;59783;52.232;5.170;2023-04-29T13:27:51;22.67;;;20.37;;
71910;SDS011;59783;52.232;5.170;2023-04-29T13:30:16;21.30;;;18.93;;
71910;SDS011;59783;52.232;5.170;2023-04-29T13:32:41;20.87;;;18.77;;
71910;SDS011;59783;52.232;5.170;2023-04-29T13:35:08;20.67;;;18.48;;
71910;SDS011;59783;52.232;5.170;2023-04-29T13:37:33;26.30;;;23.70;;
71910;SDS011;59783;52.232;5.170;2023-04-29T13:39:58;21.67;;;18.37;;
71910;SDS011;59783;52.232;5.170;2023-04-29T13:42:23;20.77;;;18.40;;
71910;SDS011;59783;52.232;5.170;2023-04-29T13:44:49;20.52;;;18.38;;
71910;SDS011;59783;52.232;5.170;2023-04-29T13:47:15;21.45;;;19.23;;
71910;SDS011;59783;52.232;5.170;2023-04-29T13:49:41;21.50;;;19.40;;
71910;SDS011;59783;52.232;5.170;2023-04-29T13:52:08;19.65;;;17.55;;
71910;SDS011;59783;52.232;5.170;2023-04-29T13:54:33;25.73;;;23.27;;
71910;SDS011;59783;52.232;5.170;2023-04-29T13:56:59;21.13;;;18.93;;
71910;SDS011;59783;52.232;5.170;2023-04-29T13:59:25;22.65;;;20.55;;
71910;SDS011;59783;52.232;5.170;2023-04-29T14:01:50;21.23;;;18.93;;
71910;SDS011;59783;52.232;5.170;2023-04-29T14:04:15;22.15;;;19.92;;
71910;SDS011;59783;52.232;5.170;2023-04-29T14:06:43;21.92;;;19.60;;
71910;SDS011;59783;52.232;5.170;2023-04-29T14:09:08;21.60;;;19.25;;
71910;SDS011;59783;52.232;5.170;2023-04-29T14:11:34;20.37;;;18.30;;
71910;SDS011;59783;52.232;5.170;2023-04-29T14:14:00;19.83;;;17.90;;
71910;SDS011;59783;52.232;5.170;2023-04-29T14:16:25;22.10;;;20.08;;
71910;SDS011;59783;52.232;5.170;2023-04-29T14:18:52;22.85;;;20.75;;
71910;SDS011;59783;52.232;5.170;2023-04-29T14:21:17;22.63;;;20.53;;
71910;SDS011;59783;52.232;5.170;2023-04-29T14:23:43;21.65;;;19.55;;
71910;SDS011;59783;52.232;5.170;2023-04-29T14:26:08;21.93;;;19.77;;
71910;SDS011;59783;52.232;5.170;2023-04-29T14:28:34;19.37;;;17.47;;
71910;SDS011;59783;52.232;5.170;2023-04-29T14:31:00;20.52;;;18.60;;
71910;SDS011;59783;52.232;5.170;2023-04-29T14:33:25;22.00;;;19.80;;
71910;SDS011;59783;52.232;5.170;2023-04-29T14:35:50;21.70;;;19.50;;
71910;SDS011;59783;52.232;5.170;2023-04-29T14:38:15;21.48;;;19.38;;